KCDH/CDH METAR and TAF weather

Enter ICAO airport designator
Station Type Date Time Source
KCDH METAR 2021/07/29 19:35 UTC NOAA

KCDH 291935Z AUTO VRB04KT 7SM FEW046 37/26 A3003 RMK AO2


Station Type Date Time Source
KCDH Decoded METAR 2021/07/29 19:35 UTC NOAA

Camden / Harrell Field, AR, United States (KCDH) 33-37N 092-46W
Jul 29, 2021 - 03:35 PM EDT / 2021.07.29 1935 UTC
Wind: Variable at 5 MPH (4 KT):0
Visibility: 7 mile(s):0
Sky conditions: mostly clear
Temperature: 98 F (37 C)
Heat index: 115.5 F (46.4 C):1
Dew Point: 78 F (26 C)
Relative Humidity: 53%
Pressure (altimeter): 30.03 in. Hg (1016 hPa)
ob: KCDH 291935Z AUTO VRB04KT 7SM FEW046 37/26 A3003 RMK AO2
cycle: 19

Station Type Date Time Source
KCDH TAF UTC NOAA

Error!

Example: see airport list